Time;durP1;ratioP1;P1;durP2;ratioP2;P2;SDS_P1;SDS_P2;PMS_P1;PMS_P2;Temp;Humidity;BMP_temperature;BMP_pressure;BME280_temperature;BME280_humidity;BME280_pressure;Samples;Min_cycle;Max_cycle;Signal;HPM_P1;HPM_P2
2021/09/08 00:01:07;;;;;;;;;;;14.90;1.00;;;;;;5111239;28;19976;-71
2021/09/08 00:03:32;;;;;;;;;;;14.90;1.00;;;;;;5109814;28;20384;-72
2021/09/08 00:05:58;;;;;;;;;;;14.90;1.00;;;;;;5111191;28;19912;-71
2021/09/08 00:08:25;;;;;;;;;;;14.90;1.00;;;;;;5111021;28;20372;-71
2021/09/08 00:10:50;;;;;;;;;;;14.80;1.00;;;;;;5110471;28;20433;-71
2021/09/08 00:13:16;;;;;;;;;;;14.80;1.00;;;;;;5109610;28;19998;-70
2021/09/08 00:15:41;;;;;;;;;;;14.70;1.00;;;;;;5110111;28;19961;-70
2021/09/08 00:18:07;;;;;;;;;;;14.80;1.00;;;;;;5110543;28;20376;-71
2021/09/08 00:20:33;;;;;;;;;;;14.70;1.00;;;;;;5111222;28;19961;-70
2021/09/08 00:22:58;;;;;;;;;;;14.60;1.00;;;;;;5109781;28;19960;-71
2021/09/08 00:25:24;;;;;;;;;;;14.60;1.00;;;;;;5092961;28;19916;-70
2021/09/08 00:27:49;;;;;;;;;;;14.60;1.00;;;;;;5090453;28;20430;-71
2021/09/08 00:30:15;;;;;;;;;;;14.60;1.00;;;;;;5090209;28;19912;-71
2021/09/08 00:32:40;;;;;;;;;;;14.50;1.00;;;;;;5089771;28;20395;-70
2021/09/08 00:35:06;;;;;;;;;;;14.50;1.00;;;;;;5089883;28;19914;-71
2021/09/08 00:37:32;;;;;;;;;;;14.50;1.00;;;;;;5090320;28;19981;-71
2021/09/08 00:39:57;;;;;;;;;;;14.50;1.00;;;;;;5090673;28;20367;-70
2021/09/08 00:42:23;;;;;;;;;;;14.40;1.00;;;;;;5088008;28;20439;-70
2021/09/08 00:44:48;;;;;;;;;;;14.40;1.00;;;;;;5089791;28;19908;-71
2021/09/08 00:47:15;;;;;;;;;;;14.30;1.00;;;;;;5089622;28;20373;-71
2021/09/08 00:49:41;;;;;;;;;;;14.30;1.00;;;;;;5088650;28;20318;-72
2021/09/08 00:52:08;;;;;;;;;;;14.30;1.00;;;;;;5088616;28;20029;-72
2021/09/08 00:54:35;;;;;;;;;;;14.30;1.00;;;;;;5098792;28;19918;-72
2021/09/08 00:57:02;;;;;;;;;;;14.20;1.00;;;;;;5108867;28;20363;-71
2021/09/08 00:59:27;;;;;;;;;;;14.20;1.00;;;;;;5110212;28;20088;-71
2021/09/08 01:01:53;;;;;;;;;;;14.20;1.00;;;;;;5096185;28;20458;-71
2021/09/08 01:04:18;;;;;;;;;;;14.10;1.00;;;;;;5088844;28;19992;-73
2021/09/08 01:06:44;;;;;;;;;;;14.10;1.00;;;;;;5089488;28;19946;-73
2021/09/08 01:09:11;;;;;;;;;;;14.00;1.00;;;;;;5089253;28;19959;-73
2021/09/08 01:11:37;;;;;;;;;;;14.00;1.00;;;;;;5089008;28;19916;-70
2021/09/08 01:14:03;;;;;;;;;;;14.00;1.00;;;;;;5087952;28;20230;-70
2021/09/08 01:16:29;;;;;;;;;;;13.90;1.00;;;;;;5089247;28;19922;-71
2021/09/08 01:18:54;;;;;;;;;;;13.90;1.00;;;;;;5088983;28;20002;-70
2021/09/08 01:21:20;;;;;;;;;;;13.90;1.00;;;;;;5088999;28;19912;-70
2021/09/08 01:23:45;;;;;;;;;;;13.90;1.00;;;;;;5085203;28;20086;-69
2021/09/08 01:26:11;;;;;;;;;;;13.90;1.00;;;;;;5068338;28;19912;-70
2021/09/08 01:28:37;;;;;;;;;;;13.80;1.00;;;;;;5074138;28;20397;-71
2021/09/08 01:31:03;;;;;;;;;;;13.80;1.00;;;;;;5089164;28;19931;-72
2021/09/08 01:33:29;;;;;;;;;;;13.80;1.00;;;;;;5087486;28;19951;-71
2021/09/08 01:35:54;;;;;;;;;;;13.80;1.00;;;;;;5089093;28;19939;-70
2021/09/08 01:38:20;;;;;;;;;;;13.80;1.00;;;;;;5089127;28;20357;-70
2021/09/08 01:40:45;;;;;;;;;;;13.80;1.00;;;;;;5087398;28;19920;-70
2021/09/08 01:43:11;;;;;;;;;;;13.70;1.00;;;;;;5086906;28;20376;-73
2021/09/08 01:45:43;;;;;;;;;;;13.70;1.00;;;;;;5070526;28;19955;-71
2021/09/08 01:48:08;;;;;;;;;;;13.70;1.00;;;;;;5088880;28;20602;-72
2021/09/08 01:50:34;;;;;;;;;;;13.70;1.00;;;;;;5088939;28;19908;-73
2021/09/08 01:52:59;;;;;;;;;;;13.60;1.00;;;;;;5088294;28;19923;-71
2021/09/08 01:55:25;;;;;;;;;;;13.60;1.00;;;;;;5103728;28;19916;-73
2021/09/08 01:57:50;;;;;;;;;;;13.60;1.00;;;;;;5108882;28;19923;-70
2021/09/08 02:00:16;;;;;;;;;;;13.50;1.00;;;;;;5109015;28;19908;-72
2021/09/08 02:02:42;;;;;;;;;;;13.50;1.00;;;;;;5111649;28;19918;-71
2021/09/08 02:05:08;;;;;;;;;;;13.50;1.00;;;;;;5112611;28;19919;-72
2021/09/08 02:07:34;;;;;;;;;;;13.40;1.00;;;;;;5112860;28;19908;-73
2021/09/08 02:09:59;;;;;;;;;;;13.40;1.00;;;;;;5113146;28;19908;-71
2021/09/08 02:12:25;;;;;;;;;;;13.40;1.00;;;;;;5110892;28;20607;-71
2021/09/08 02:14:50;;;;;;;;;;;13.40;1.00;;;;;;5112917;28;19911;-71
2021/09/08 02:17:16;;;;;;;;;;;13.30;1.00;;;;;;5113078;28;19915;-72
2021/09/08 02:19:41;;;;;;;;;;;13.30;1.00;;;;;;5112425;28;19918;-71
2021/09/08 02:22:07;;;;;;;;;;;13.40;1.00;;;;;;5112145;28;20411;-71
2021/09/08 02:24:32;;;;;;;;;;;13.30;1.00;;;;;;5102971;28;19919;-70
2021/09/08 02:26:58;;;;;;;;;;;13.30;1.00;;;;;;5091000;28;19916;-71
2021/09/08 02:29:23;;;;;;;;;;;13.30;1.00;;;;;;5092166;28;19919;-71
2021/09/08 02:31:49;;;;;;;;;;;13.20;1.00;;;;;;5091152;28;19908;-71
2021/09/08 02:34:14;;;;;;;;;;;13.20;1.00;;;;;;5092142;28;20561;-70
2021/09/08 02:36:40;;;;;;;;;;;13.20;1.00;;;;;;5092298;28;19976;-70
2021/09/08 02:39:06;;;;;;;;;;;13.10;1.00;;;;;;5092167;28;19997;-71
2021/09/08 02:41:32;;;;;;;;;;;13.10;1.00;;;;;;5089981;28;19908;-72
2021/09/08 02:43:58;;;;;;;;;;;13.10;1.00;;;;;;5090802;28;19927;-71
2021/09/08 02:46:23;;;;;;;;;;;13.10;1.00;;;;;;5092297;28;19916;-70
2021/09/08 02:48:49;;;;;;;;;;;13.10;1.00;;;;;;5091763;28;20388;-71
2021/09/08 02:51:14;;;;;;;;;;;13.00;1.00;;;;;;5077843;28;19912;-72
2021/09/08 02:53:40;;;;;;;;;;;13.00;1.00;;;;;;5073941;28;19908;-71
2021/09/08 02:56:05;;;;;;;;;;;12.90;1.00;;;;;;5111098;28;20003;-71
2021/09/08 02:58:31;;;;;;;;;;;12.90;1.00;;;;;;5112096;28;19992;-72
2021/09/08 03:00:57;;;;;;;;;;;12.90;1.00;;;;;;5106482;28;20003;-71
2021/09/08 03:03:22;;;;;;;;;;;12.90;1.00;;;;;;5090854;28;19908;-70
2021/09/08 03:05:48;;;;;;;;;;;12.90;1.00;;;;;;5091597;28;19915;-70
2021/09/08 03:08:14;;;;;;;;;;;12.90;1.00;;;;;;5091837;28;20385;-70
2021/09/08 03:10:41;;;;;;;;;;;12.80;1.00;;;;;;5090589;28;19908;-71
2021/09/08 03:13:06;;;;;;;;;;;12.80;1.00;;;;;;5071901;28;20369;-71
2021/09/08 03:15:32;;;;;;;;;;;12.80;1.00;;;;;;5091752;28;20015;-71
2021/09/08 03:17:57;;;;;;;;;;;12.80;1.00;;;;;;5091490;28;19955;-71
2021/09/08 03:20:23;;;;;;;;;;;12.80;1.00;;;;;;5091139;28;19908;-72
2021/09/08 03:22:48;;;;;;;;;;;12.80;1.00;;;;;;5090633;28;19962;-70
2021/09/08 03:25:14;;;;;;;;;;;12.70;1.00;;;;;;5090662;28;19911;-71
2021/09/08 03:27:40;;;;;;;;;;;12.70;1.00;;;;;;5090874;28;20396;-71
2021/09/08 03:30:06;;;;;;;;;;;12.70;1.00;;;;;;5092099;28;19959;-72
2021/09/08 03:32:32;;;;;;;;;;;12.70;1.00;;;;;;5091319;28;20352;-72
2021/09/08 03:34:57;;;;;;;;;;;12.70;1.00;;;;;;5091917;28;19908;-72
2021/09/08 03:37:23;;;;;;;;;;;12.60;1.00;;;;;;5091511;28;20365;-73
2021/09/08 03:39:48;;;;;;;;;;;12.60;1.00;;;;;;5091798;28;19916;-72
2021/09/08 03:42:14;;;;;;;;;;;12.60;1.00;;;;;;5089427;28;19946;-72
2021/09/08 03:44:39;;;;;;;;;;;12.60;1.00;;;;;;5091585;28;19908;-71
2021/09/08 03:47:05;;;;;;;;;;;12.60;1.00;;;;;;5091064;28;19920;-71
2021/09/08 03:49:31;;;;;;;;;;;12.60;1.00;;;;;;5090686;28;19937;-72
2021/09/08 03:51:57;;;;;;;;;;;12.60;1.00;;;;;;5089772;28;19963;-71
2021/09/08 03:54:22;;;;;;;;;;;12.60;1.00;;;;;;5098058;28;20396;-71
2021/09/08 03:56:48;;;;;;;;;;;12.60;1.00;;;;;;5110698;28;19911;-71
2021/09/08 03:59:13;;;;;;;;;;;12.60;1.00;;;;;;5111106;28;19908;-71
2021/09/08 04:01:39;;;;;;;;;;;12.50;1.00;;;;;;5110975;28;19959;-71
2021/09/08 04:04:04;;;;;;;;;;;12.50;1.00;;;;;;5109684;28;19915;-71
2021/09/08 04:06:30;;;;;;;;;;;12.50;1.00;;;;;;5110997;28;19915;-71
2021/09/08 04:08:55;;;;;;;;;;;12.50;1.00;;;;;;5110955;28;20295;-71
2021/09/08 04:11:21;;;;;;;;;;;12.50;1.00;;;;;;5109922;28;19912;-72
2021/09/08 04:13:46;;;;;;;;;;;12.50;1.00;;;;;;5109417;28;19907;-71
2021/09/08 04:16:12;;;;;;;;;;;12.50;1.00;;;;;;5110398;28;19923;-71
2021/09/08 04:18:37;;;;;;;;;;;12.40;1.00;;;;;;5110524;28;19947;-72
2021/09/08 04:21:03;;;;;;;;;;;12.40;1.00;;;;;;5110861;28;19908;-71
2021/09/08 04:23:28;;;;;;;;;;;12.40;1.00;;;;;;5108836;28;19915;-71
2021/09/08 04:25:54;;;;;;;;;;;12.40;1.00;;;;;;5071174;28;20020;-71
2021/09/08 04:28:19;;;;;;;;;;;12.40;1.00;;;;;;5089179;28;19939;-70
2021/09/08 04:30:45;;;;;;;;;;;12.40;1.00;;;;;;5085884;28;19912;-70
2021/09/08 04:33:10;;;;;;;;;;;12.40;1.00;;;;;;5087984;28;19912;-71
2021/09/08 04:35:36;;;;;;;;;;;12.40;1.00;;;;;;5089587;28;19953;-71
2021/09/08 04:38:01;;;;;;;;;;;12.40;1.00;;;;;;5089552;28;20001;-72
2021/09/08 04:40:27;;;;;;;;;;;12.30;1.00;;;;;;5088303;28;19938;-72
2021/09/08 04:42:52;;;;;;;;;;;12.30;1.00;;;;;;5085666;28;19909;-72
2021/09/08 04:45:18;;;;;;;;;;;12.40;1.00;;;;;;5087395;28;20016;-72
2021/09/08 04:47:43;;;;;;;;;;;12.40;1.00;;;;;;5087560;28;20315;-72
2021/09/08 04:50:09;;;;;;;;;;;12.40;1.00;;;;;;5086010;28;19965;-72
2021/09/08 04:52:35;;;;;;;;;;;12.50;1.00;;;;;;5086701;28;19970;-71
2021/09/08 04:55:01;;;;;;;;;;;12.60;1.00;;;;;;5099411;28;19918;-72
2021/09/08 04:57:26;;;;;;;;;;;12.60;1.00;;;;;;5106476;28;20002;-73
2021/09/08 04:59:52;;;;;;;;;;;12.70;1.00;;;;;;5107560;28;20007;-71
2021/09/08 05:02:17;;;;;;;;;;;12.70;1.00;;;;;;5106182;28;19961;-72
2021/09/08 05:04:42;;;;;;;;;;;12.70;1.00;;;;;;5107055;28;19915;-71
2021/09/08 05:07:08;;;;;;;;;;;12.80;1.00;;;;;;5107498;28;19930;-71
2021/09/08 05:09:33;;;;;;;;;;;12.80;1.00;;;;;;5088923;28;19915;-71
2021/09/08 05:11:59;;;;;;;;;;;12.80;1.00;;;;;;5105507;28;19908;-74
2021/09/08 05:14:24;;;;;;;;;;;12.90;1.00;;;;;;5106782;28;20333;-73
2021/09/08 05:16:50;;;;;;;;;;;12.90;1.00;;;;;;5107122;28;20382;-72
2021/09/08 05:19:15;;;;;;;;;;;13.00;1.00;;;;;;5107014;28;20003;-74
2021/09/08 05:21:41;;;;;;;;;;;13.10;1.00;;;;;;5099832;28;20391;-73
2021/09/08 05:24:06;;;;;;;;;;;13.20;1.00;;;;;;5085952;28;20028;-73
2021/09/08 05:26:32;;;;;;;;;;;13.30;1.00;;;;;;5085395;28;20072;-72
2021/09/08 05:28:57;;;;;;;;;;;13.80;1.00;;;;;;5085949;28;19912;-73
2021/09/08 05:31:23;;;;;;;;;;;14.40;1.00;;;;;;5068708;28;20001;-76
2021/09/08 05:33:48;;;;;;;;;;;15.20;99.90;;;;;;5085642;28;19908;-73
2021/09/08 05:36:15;;;;;;;;;;;16.00;57.60;;;;;;5079977;28;19916;-70
2021/09/08 05:38:41;;;;;;;;;;;16.70;1.00;;;;;;5084491;28;19912;-72
2021/09/08 05:41:09;;;;;;;;;;;17.30;1.00;;;;;;5090049;28;19916;-72
2021/09/08 05:43:34;;;;;;;;;;;17.90;99.90;;;;;;5070335;28;19932;-72
2021/09/08 05:46:00;;;;;;;;;;;18.50;1.00;;;;;;5070592;28;19924;-74
2021/09/08 05:48:25;;;;;;;;;;;19.20;1.00;;;;;;5070158;28;19912;-72
2021/09/08 05:50:51;;;;;;;;;;;19.90;1.00;;;;;;5082122;28;19912;-71
2021/09/08 05:53:16;;;;;;;;;;;20.50;1.00;;;;;;5089412;28;19912;-71
2021/09/08 05:55:42;;;;;;;;;;;21.10;99.90;;;;;;5090192;28;19916;-72
2021/09/08 05:58:07;;;;;;;;;;;21.80;99.90;;;;;;5090234;28;20011;-71
2021/09/08 06:00:33;;;;;;;;;;;22.50;99.90;;;;;;5090899;28;20746;-71
2021/09/08 06:02:58;;;;;;;;;;;23.20;99.90;;;;;;5089794;28;19908;-70
2021/09/08 06:05:24;;;;;;;;;;;23.80;99.90;;;;;;5089757;28;20361;-72
2021/09/08 06:07:49;;;;;;;;;;;24.50;99.90;;;;;;5089748;28;19912;-73
2021/09/08 06:10:17;;;;;;;;;;;25.00;99.90;;;;;;5089952;28;20022;-73
2021/09/08 06:12:44;;;;;;;;;;;25.10;99.90;;;;;;5088469;28;20234;-73
2021/09/08 06:15:11;;;;;;;;;;;25.80;99.90;;;;;;5090312;28;20019;-72
2021/09/08 06:17:36;;;;;;;;;;;26.30;99.90;;;;;;5071680;28;19961;-73
2021/09/08 06:20:02;;;;;;;;;;;27.10;99.90;;;;;;5089598;28;19908;-73
2021/09/08 06:22:28;;;;;;;;;;;27.50;99.90;;;;;;5088882;28;20734;-73
2021/09/08 06:24:53;;;;;;;;;;;28.00;99.90;;;;;;5089587;28;20417;-73
2021/09/08 06:27:19;;;;;;;;;;;28.50;99.90;;;;;;5088785;28;19912;-73
2021/09/08 06:29:44;;;;;;;;;;;28.60;99.90;;;;;;5075953;28;19912;-73
2021/09/08 06:32:10;;;;;;;;;;;28.60;99.90;;;;;;5111006;28;19912;-74
2021/09/08 06:34:35;;;;;;;;;;;28.80;99.90;;;;;;5112194;28;19934;-73
2021/09/08 06:37:01;;;;;;;;;;;29.20;99.90;;;;;;5111510;28;19984;-74
2021/09/08 06:39:26;;;;;;;;;;;29.60;99.90;;;;;;5094189;28;19916;-72
2021/09/08 06:41:52;;;;;;;;;;;29.80;99.90;;;;;;5090818;28;20279;-72
2021/09/08 06:44:17;;;;;;;;;;;30.10;99.90;;;;;;5091924;28;19931;-73
2021/09/08 06:46:43;;;;;;;;;;;30.10;99.90;;;;;;5092599;28;20352;-72
2021/09/08 06:49:09;;;;;;;;;;;30.80;99.90;;;;;;5090504;28;19973;-72
2021/09/08 06:51:34;;;;;;;;;;;31.40;99.90;;;;;;5073501;28;19923;-72
2021/09/08 06:54:00;;;;;;;;;;;31.80;99.90;;;;;;5091260;28;20322;-72
2021/09/08 06:56:25;;;;;;;;;;;32.50;99.90;;;;;;5091192;28;19912;-72
2021/09/08 06:58:51;;;;;;;;;;;32.50;99.90;;;;;;5091496;28;19908;-72
2021/09/08 07:01:16;;;;;;;;;;;32.50;99.90;;;;;;5092109;28;19913;-72
2021/09/08 07:03:41;;;;;;;;;;;31.90;99.90;;;;;;5090954;28;19908;-72
2021/09/08 07:06:07;;;;;;;;;;;31.40;99.90;;;;;;5091624;28;19974;-72
2021/09/08 07:08:32;;;;;;;;;;;31.10;99.90;;;;;;5091374;28;19908;-72
2021/09/08 07:10:58;;;;;;;;;;;31.50;99.90;;;;;;5090727;28;20011;-72
2021/09/08 07:13:24;;;;;;;;;;;31.10;99.90;;;;;;5089691;28;19912;-71
2021/09/08 07:15:49;;;;;;;;;;;31.90;99.90;;;;;;5091803;28;19908;-71
2021/09/08 07:18:15;;;;;;;;;;;33.50;99.90;;;;;;5091412;28;19924;-73
2021/09/08 07:20:41;;;;;;;;;;;35.20;99.90;;;;;;5091557;28;20003;-72
2021/09/08 07:23:07;;;;;;;;;;;36.30;96.00;;;;;;5090684;28;19991;-71
2021/09/08 07:25:33;;;;;;;;;;;37.40;93.00;;;;;;5090517;28;19955;-72
2021/09/08 07:27:58;;;;;;;;;;;38.20;90.90;;;;;;5091134;28;20419;-72
2021/09/08 07:30:24;;;;;;;;;;;38.80;84.60;;;;;;5101136;28;19955;-71
2021/09/08 07:32:49;;;;;;;;;;;39.40;76.30;;;;;;5111162;28;20645;-74
2021/09/08 07:35:15;;;;;;;;;;;38.80;64.80;;;;;;5110411;28;20003;-74
2021/09/08 07:37:40;;;;;;;;;;;37.70;57.30;;;;;;5105076;28;20018;-71
2021/09/08 07:40:07;;;;;;;;;;;37.40;52.20;;;;;;5090623;28;19942;-74
2021/09/08 07:42:33;;;;;;;;;;;37.40;48.10;;;;;;5089416;28;20010;-73
2021/09/08 07:44:58;;;;;;;;;;;38.60;43.30;;;;;;5090896;28;19998;-71
2021/09/08 07:47:24;;;;;;;;;;;38.60;39.40;;;;;;5091088;28;19912;-71
2021/09/08 07:49:49;;;;;;;;;;;38.20;34.70;;;;;;5090436;28;19991;-71
2021/09/08 07:52:15;;;;;;;;;;;38.10;31.30;;;;;;5090628;28;20006;-72
2021/09/08 07:54:40;;;;;;;;;;;39.50;28.80;;;;;;5090898;28;19919;-71
2021/09/08 07:57:06;;;;;;;;;;;41.50;27.70;;;;;;5089239;28;20402;-72
2021/09/08 07:59:31;;;;;;;;;;;43.10;24.50;;;;;;5090489;28;19912;-72
2021/09/08 08:01:57;;;;;;;;;;;43.00;19.60;;;;;;5090096;28;19951;-72
2021/09/08 08:04:22;;;;;;;;;;;42.30;14.70;;;;;;5090414;28;19908;-70
2021/09/08 08:06:48;;;;;;;;;;;42.10;10.90;;;;;;5090617;28;19908;-73
2021/09/08 08:09:13;;;;;;;;;;;42.10;8.00;;;;;;5090561;28;19907;-74
2021/09/08 08:11:39;;;;;;;;;;;41.20;4.70;;;;;;5090100;28;20349;-72
2021/09/08 08:14:04;;;;;;;;;;;41.00;1.40;;;;;;5089367;28;19923;-72
2021/09/08 08:16:32;;;;;;;;;;;41.70;1.00;;;;;;5090521;28;19922;-72
2021/09/08 08:18:57;;;;;;;;;;;41.60;1.00;;;;;;5089694;28;19909;-71
2021/09/08 08:21:23;;;;;;;;;;;42.50;1.00;;;;;;5089927;28;19935;-70
2021/09/08 08:23:48;;;;;;;;;;;43.40;1.00;;;;;;5089523;28;20049;-71
2021/09/08 08:26:17;;;;;;;;;;;42.70;1.00;;;;;;5089306;28;19914;-73
2021/09/08 08:28:43;;;;;;;;;;;42.10;1.00;;;;;;5089797;28;19915;-72
2021/09/08 08:31:09;;;;;;;;;;;41.30;1.00;;;;;;5106097;28;19919;-73
2021/09/08 08:33:35;;;;;;;;;;;41.30;1.00;;;;;;5109331;28;19922;-71
2021/09/08 08:36:00;;;;;;;;;;;43.40;1.00;;;;;;5110078;28;19912;-72
2021/09/08 08:38:26;;;;;;;;;;;44.20;1.00;;;;;;5097560;28;20289;-71
2021/09/08 08:40:51;;;;;;;;;;;44.90;1.00;;;;;;5089284;28;19920;-71
2021/09/08 08:43:18;;;;;;;;;;;44.80;1.00;;;;;;5087623;28;19915;-71
2021/09/08 08:45:44;;;;;;;;;;;45.70;1.00;;;;;;5069499;28;20365;-72
2021/09/08 08:48:09;;;;;;;;;;;45.50;1.00;;;;;;5090043;28;19992;-71
2021/09/08 08:50:35;;;;;;;;;;;46.00;1.00;;;;;;5089362;28;19916;-71
2021/09/08 08:53:00;;;;;;;;;;;46.20;1.00;;;;;;5089523;28;19912;-73
2021/09/08 08:55:26;;;;;;;;;;;45.40;1.00;;;;;;5089086;28;20357;-72
2021/09/08 08:57:52;;;;;;;;;;;46.10;1.00;;;;;;5089239;28;19919;-72
2021/09/08 09:00:19;;;;;;;;;;;44.50;1.00;;;;;;5089332;28;19912;-72
2021/09/08 09:02:48;;;;;;;;;;;43.50;1.00;;;;;;5083909;28;19916;-73
2021/09/08 09:05:34;;;;;;;;;;;44.80;1.00;;;;;;5076142;28;20035;-71
2021/09/08 09:08:00;;;;;;;;;;;45.80;1.00;;;;;;5079745;28;19912;-71
2021/09/08 09:10:26;;;;;;;;;;;45.40;1.00;;;;;;5077893;28;19908;-71
2021/09/08 09:12:52;;;;;;;;;;;44.50;1.00;;;;;;5076927;28;20003;-71
2021/09/08 09:15:23;;;;;;;;;;;45.00;1.00;;;;;;5079764;28;19991;-71
2021/09/08 09:17:49;;;;;;;;;;;46.10;1.00;;;;;;5078888;28;20321;-72
2021/09/08 09:20:18;;;;;;;;;;;46.50;1.00;;;;;;5086484;28;19912;-75
2021/09/08 09:22:47;;;;;;;;;;;45.90;1.00;;;;;;5084341;28;19912;-71
2021/09/08 09:25:14;;;;;;;;;;;45.60;1.00;;;;;;5078886;28;20541;-71
2021/09/08 09:27:50;;;;;;;;;;;46.00;1.00;;;;;;5079394;28;19966;-72
2021/09/08 09:30:17;;;;;;;;;;;46.20;1.00;;;;;;5080067;28;19909;-72
2021/09/08 09:32:45;;;;;;;;;;;45.30;1.00;;;;;;5076235;28;20370;-72
2021/09/08 09:35:13;;;;;;;;;;;44.30;1.00;;;;;;5076066;28;19920;-72
2021/09/08 09:37:43;;;;;;;;;;;44.50;1.00;;;;;;5076598;28;19967;-72
2021/09/08 09:40:08;;;;;;;;;;;44.90;1.00;;;;;;5077737;28;20015;-73
2021/09/08 09:42:34;;;;;;;;;;;44.50;1.00;;;;;;5074876;28;19939;-72
2021/09/08 09:45:06;;;;;;;;;;;44.30;1.00;;;;;;5079240;28;19916;-72
2021/09/08 09:47:35;;;;;;;;;;;42.40;1.00;;;;;;5077564;28;20037;-72
2021/09/08 09:50:03;;;;;;;;;;;40.60;1.00;;;;;;5079414;28;19908;-72
2021/09/08 09:52:28;;;;;;;;;;;39.80;1.00;;;;;;5079893;28;19908;-72
2021/09/08 09:54:54;;;;;;;;;;;39.90;1.00;;;;;;5078110;28;20695;-72
2021/09/08 09:57:21;;;;;;;;;;;40.70;1.00;;;;;;5077022;28;19916;-71
2021/09/08 09:59:47;;;;;;;;;;;41.20;1.00;;;;;;5079169;28;19919;-71
2021/09/08 10:02:12;;;;;;;;;;;41.00;1.00;;;;;;5076224;28;20006;-72
2021/09/08 10:04:38;;;;;;;;;;;41.00;1.00;;;;;;5059517;28;19919;-71
2021/09/08 10:07:04;;;;;;;;;;;40.10;1.00;;;;;;5080020;28;19919;-71
2021/09/08 10:09:30;;;;;;;;;;;39.60;1.00;;;;;;5076546;28;19987;-73
2021/09/08 10:11:57;;;;;;;;;;;40.00;1.00;;;;;;5076126;28;20011;-71
2021/09/08 10:14:24;;;;;;;;;;;39.10;1.00;;;;;;5077307;28;20321;-71
2021/09/08 10:16:50;;;;;;;;;;;37.70;1.00;;;;;;5078778;28;19912;-71
2021/09/08 10:19:16;;;;;;;;;;;37.60;1.00;;;;;;5076866;28;20276;-71
2021/09/08 10:21:43;;;;;;;;;;;38.50;1.00;;;;;;5077013;28;19944;-71
2021/09/08 10:24:09;;;;;;;;;;;40.00;1.00;;;;;;5082231;28;19921;-72
2021/09/08 10:26:35;;;;;;;;;;;39.90;1.00;;;;;;5079553;28;19916;-71
2021/09/08 10:29:06;;;;;;;;;;;40.00;1.00;;;;;;5082647;28;20341;-71
2021/09/08 10:31:36;;;;;;;;;;;39.20;1.00;;;;;;5084237;28;19916;-71
2021/09/08 10:34:03;;;;;;;;;;;38.20;1.00;;;;;;5079278;28;20369;-71
2021/09/08 10:36:29;;;;;;;;;;;37.60;1.00;;;;;;5081519;28;19999;-70
2021/09/08 10:39:03;;;;;;;;;;;36.70;1.00;;;;;;5081662;28;20030;-71
2021/09/08 10:41:36;;;;;;;;;;;36.70;1.00;;;;;;5082092;28;19982;-73
2021/09/08 10:44:01;;;;;;;;;;;36.10;1.00;;;;;;5080152;28;20293;-72
2021/09/08 10:46:47;;;;;;;;;;;35.80;1.00;;;;;;5080347;28;19908;-71
2021/09/08 10:49:32;;;;;;;;;;;35.40;1.00;;;;;;5082182;28;20234;-70
2021/09/08 10:51:58;;;;;;;;;;;35.30;1.00;;;;;;5061586;28;19915;-70
2021/09/08 10:54:23;;;;;;;;;;;34.80;1.00;;;;;;5079753;28;20299;-70
2021/09/08 10:56:50;;;;;;;;;;;34.40;1.00;;;;;;5080936;28;19920;-70
2021/09/08 10:59:15;;;;;;;;;;;34.30;1.00;;;;;;5078875;28;20274;-70
2021/09/08 11:01:42;;;;;;;;;;;33.90;1.00;;;;;;5088470;28;19916;-73
2021/09/08 11:04:14;;;;;;;;;;;34.30;1.00;;;;;;5090313;28;19915;-70
2021/09/08 11:06:40;;;;;;;;;;;34.30;1.00;;;;;;5091951;28;19908;-70
2021/09/08 11:09:07;;;;;;;;;;;34.80;1.00;;;;;;5092497;28;19908;-72
2021/09/08 11:11:33;;;;;;;;;;;35.70;1.00;;;;;;5092806;28;19912;-72
2021/09/08 11:13:58;;;;;;;;;;;36.20;1.00;;;;;;5092209;28;19919;-71
2021/09/08 11:16:31;;;;;;;;;;;36.20;1.00;;;;;;5092910;28;19920;-70
2021/09/08 11:18:58;;;;;;;;;;;36.20;1.00;;;;;;5092337;28;19962;-71
2021/09/08 11:21:25;;;;;;;;;;;36.60;1.00;;;;;;5092828;28;19908;-70
2021/09/08 11:24:02;;;;;;;;;;;36.80;1.00;;;;;;5091385;28;20274;-70
2021/09/08 11:26:28;;;;;;;;;;;35.90;1.00;;;;;;5093434;28;19912;-70
2021/09/08 11:29:14;;;;;;;;;;;34.90;1.00;;;;;;5091755;28;19985;-71
2021/09/08 11:31:44;;;;;;;;;;;34.30;1.00;;;;;;5071579;28;19908;-70
2021/09/08 11:34:19;;;;;;;;;;;33.40;1.00;;;;;;5070273;28;19913;-71
2021/09/08 11:36:45;;;;;;;;;;;33.00;1.00;;;;;;5071150;28;19917;-72
2021/09/08 11:39:14;;;;;;;;;;;32.50;1.10;;;;;;5090334;28;19922;-69
2021/09/08 11:41:51;;;;;;;;;;;32.00;2.60;;;;;;5072595;28;20234;-70
2021/09/08 11:44:17;;;;;;;;;;;32.00;5.40;;;;;;5091154;28;20424;-70
2021/09/08 11:46:42;;;;;;;;;;;31.80;6.90;;;;;;5091164;28;19966;-70
2021/09/08 11:49:09;;;;;;;;;;;32.00;8.90;;;;;;5090681;28;19932;-71
2021/09/08 11:51:35;;;;;;;;;;;32.70;10.60;;;;;;5091211;28;19919;-70
2021/09/08 11:54:04;;;;;;;;;;;32.50;11.50;;;;;;5080425;28;19923;-71
2021/09/08 11:56:30;;;;;;;;;;;32.40;12.00;;;;;;5084917;28;20288;-73
2021/09/08 11:58:59;;;;;;;;;;;31.90;13.30;;;;;;5090265;28;19908;-70
2021/09/08 12:01:25;;;;;;;;;;;31.90;14.80;;;;;;5082920;28;19920;-71
2021/09/08 12:03:51;;;;;;;;;;;32.10;16.20;;;;;;5078590;28;19908;-71
2021/09/08 12:06:21;;;;;;;;;;;32.10;16.70;;;;;;5078422;28;20384;-69
2021/09/08 12:08:53;;;;;;;;;;;31.30;26.90;;;;;;5079097;28;20260;-70
2021/09/08 12:11:29;;;;;;;;;;;30.70;18.30;;;;;;5080686;28;20379;-72
2021/09/08 12:13:54;;;;;;;;;;;30.30;20.10;;;;;;5078359;28;20020;-72
2021/09/08 12:16:38;;;;;;;;;;;29.90;21.40;;;;;;5078223;28;19916;-71
2021/09/08 12:19:17;;;;;;;;;;;29.90;23.90;;;;;;5078378;28;19987;-71
2021/09/08 12:21:43;;;;;;;;;;;30.20;37.30;;;;;;5087762;28;20311;-70
2021/09/08 12:24:21;;;;;;;;;;;30.30;26.50;;;;;;5089809;28;20006;-71
2021/09/08 12:26:47;;;;;;;;;;;29.90;27.80;;;;;;5089675;28;20882;-71
2021/09/08 12:29:13;;;;;;;;;;;29.60;29.50;;;;;;5089847;28;19918;-72
2021/09/08 12:31:57;;;;;;;;;;;29.10;30.30;;;;;;5110301;28;20011;-70
2021/09/08 12:34:23;;;;;;;;;;;29.20;33.70;;;;;;5074380;28;19912;-73
2021/09/08 12:36:50;;;;;;;;;;;29.20;34.60;;;;;;5051752;28;20199;-73
2021/09/08 12:39:22;;;;;;;;;;;28.90;35.30;;;;;;5087459;28;19981;-73
2021/09/08 12:41:58;;;;;;;;;;;28.70;37.30;;;;;;5068931;28;20015;-74
2021/09/08 12:44:25;;;;;;;;;;;28.60;38.60;;;;;;5069019;28;19909;-74
2021/09/08 12:46:50;;;;;;;;;;;28.70;41.60;;;;;;5069450;28;19920;-74
2021/09/08 12:49:17;;;;;;;;;;;28.80;42.50;;;;;;5069536;28;20274;-74
2021/09/08 12:51:43;;;;;;;;;;;28.80;43.00;;;;;;5088056;28;20379;-74
2021/09/08 12:54:11;;;;;;;;;;;28.70;42.50;;;;;;5088898;28;19912;-74
2021/09/08 12:56:37;;;;;;;;;;;28.80;44.50;;;;;;5089162;28;20038;-74
2021/09/08 12:59:02;;;;;;;;;;;28.80;46.10;;;;;;5071951;28;19999;-75
2021/09/08 13:01:29;;;;;;;;;;;28.50;60.40;;;;;;5089979;28;20357;-74
2021/09/08 13:03:54;;;;;;;;;;;28.10;48.20;;;;;;5089044;28;19912;-74
2021/09/08 13:06:20;;;;;;;;;;;28.10;50.30;;;;;;5089566;28;19908;-74
2021/09/08 13:08:45;;;;;;;;;;;28.10;51.90;;;;;;5089757;28;19919;-74
2021/09/08 13:11:11;;;;;;;;;;;28.10;53.10;;;;;;5089957;28;19908;-74
2021/09/08 13:13:36;;;;;;;;;;;28.10;55.00;;;;;;5087559;28;19912;-74
2021/09/08 13:16:03;;;;;;;;;;;27.80;56.00;;;;;;5089602;28;19966;-74
2021/09/08 13:18:28;;;;;;;;;;;27.40;57.20;;;;;;5088607;28;19915;-74
2021/09/08 13:20:54;;;;;;;;;;;27.10;58.00;;;;;;5089439;28;19922;-74
2021/09/08 13:23:20;;;;;;;;;;;26.80;59.90;;;;;;5088486;28;19919;-74
2021/09/08 13:25:45;;;;;;;;;;;26.70;62.70;;;;;;5090324;28;20338;-74
2021/09/08 13:28:11;;;;;;;;;;;26.40;64.80;;;;;;5089100;28;19912;-74
2021/09/08 13:30:36;;;;;;;;;;;26.20;65.60;;;;;;5096424;28;19916;-75
2021/09/08 13:33:02;;;;;;;;;;;26.00;66.70;;;;;;5069065;28;20583;-75
2021/09/08 13:35:27;;;;;;;;;;;25.70;65.50;;;;;;5067602;28;19915;-75
2021/09/08 13:37:53;;;;;;;;;;;25.30;67.40;;;;;;5078242;28;19928;-77
2021/09/08 13:40:19;;;;;;;;;;;25.40;70.70;;;;;;5075252;28;19974;-74
2021/09/08 13:42:44;;;;;;;;;;;25.50;73.40;;;;;;5076874;28;20034;-74
2021/09/08 13:45:10;;;;;;;;;;;25.50;73.50;;;;;;5078071;28;20637;-74
2021/09/08 13:47:35;;;;;;;;;;;25.60;74.10;;;;;;5087812;28;19995;-75
2021/09/08 13:50:01;;;;;;;;;;;25.70;74.60;;;;;;5061335;28;20745;-74
2021/09/08 13:52:26;;;;;;;;;;;26.00;77.00;;;;;;5083354;28;19943;-74
2021/09/08 13:54:52;;;;;;;;;;;26.10;80.50;;;;;;5088983;28;19991;-73
2021/09/08 13:57:17;;;;;;;;;;;26.00;81.80;;;;;;5089145;28;20654;-73
2021/09/08 13:59:43;;;;;;;;;;;25.90;81.10;;;;;;5092751;28;20218;-73
2021/09/08 14:02:08;;;;;;;;;;;25.50;82.30;;;;;;5092250;28;19912;-73
2021/09/08 14:04:34;;;;;;;;;;;25.40;84.60;;;;;;5092495;28;19919;-73
2021/09/08 14:06:59;;;;;;;;;;;25.50;88.10;;;;;;5092718;28;19915;-74
2021/09/08 14:09:25;;;;;;;;;;;25.60;88.30;;;;;;5093202;28;19908;-74
2021/09/08 14:11:52;;;;;;;;;;;25.70;89.20;;;;;;5092643;28;20007;-74
2021/09/08 14:14:21;;;;;;;;;;;25.60;89.40;;;;;;5091695;28;19947;-73
2021/09/08 14:16:46;;;;;;;;;;;25.60;88.50;;;;;;5092853;28;19919;-74
2021/09/08 14:19:17;;;;;;;;;;;25.50;98.50;;;;;;5092210;28;19908;-74
2021/09/08 14:21:43;;;;;;;;;;;25.60;90.60;;;;;;5093155;28;19908;-74